Evanston, IL (60208)

2:01 AM CDT on August 30, 2014 (GMT -0500)
North Evanston | Change Station
CLOSE
Current Station
Personal Weather Station
Location: Evanston, IL
Elevation: 627 ft
Nearby Weather Stations

Elev 627 ft 42.07 °N, 87.70 °W | Updated 7 minutes ago

Mostly Cloudy
Mostly Cloudy
74.3 °F
Feels Like 73 °F
N
0.0
Wind Variable Wind from WSW

Today
High -- | Low -- °F
--% Chance of Precip.
Yesterday
High -- | Low -- °F
Precip. -- in
6:14 AM 7:27 PM
Waxing Crescent, 19% visible
Pressure 29.83 in
Visibility 10.0 miles
Clouds Few 11000 ft
Heat Index 73 °F
Dew Point 71 °F
Humidity 89%
Rainfall 0.00 in
Snow Depth Not available.
UV 0 out of 12
Pollen 4.40 out of 12
Ozone Good
PM2.5 Moderate
Flu Activity Not available.
METAR KPWK 300652Z AUTO 17009KT 10SM FEW110 24/21 A2985 RMK AO2 SLP101 T02440206

More Conditions Fewer Conditions

Pressure 29.83 in
Visibility 10.0 miles
Clouds Few 11000 ft
Heat Index 73 °F
Dew Point 71 °F
Humidity 89%
Rainfall 0.00 in
Snow Depth Not available.
UV 0 out of 12
Pollen 4.40 out of 12
Ozone Good
PM2.5 Moderate
Flu Activity Not available.
METAR KPWK 300652Z AUTO 17009KT 10SM FEW110 24/21 A2985 RMK AO2 SLP101 T02440206

More Conditions Fewer Conditions

10-Day Weather Forecast

Almanac

Astronomy

Aug. 30, 2014 Rise Set
Actual Time 6:14 AM CDT 7:27 PM CDT
Civil Twilight 5:45 AM CDT 7:56 PM CDT
Nautical Twilight 5:10 AM CDT 8:30 PM CDT
Astronomical Twilight 4:34 AM CDT 9:07 PM CDT
Moon 11:06 AM CDT 9:55 PM CDT
Length of Visible Light 14h 11m
Length of Day
13h 13m
Tomorrow will be 2m 43s shorter.
Waxing Crescent, 19% of the Moon is Illuminated
Today
Waxing Crescent
Sep 2
First Quarter
Sep 8
Full
Sep 15
Last Quarter
Sep 24
New

Today's Extremes

State Highs State Lows

Community

WunderPhotos

Upload Photos

1,748,462 photos uploaded!

Nearby

Air Quality

  Air Quality AQ Index Pollutant
Yesterday Moderate
PM2.5
Yesterday Good
OZONE
Current Moderate
PM2.5
Current Good
OZONE
Saturday Moderate
PM2.5
Saturday Good
OZONE
Sunday Moderate
OZONE
Sunday Good
PM2.5
Monday Moderate
PM2.5
Monday Good
OZONE
Tuesday Good
OZONE
Tuesday Good
PM2.5

Snow Depth

Station Depth Elevation
No new snow has been reported.

Earthquake Activity

City Distance Mag. Time & Date
No recent earthquake activity has been reported nearby.
Minimum magnitude displayed is 2.5.

Coastal Water Temperatures

Place Temperature
No Stations Reporting

Nearby Weather Stations